Time;durP1;ratioP1;P1;durP2;ratioP2;P2;SDS_P1;SDS_P2;PMS_P1;PMS_P2;Temp;Humidity;BMP_temperature;BMP_pressure;BME280_temperature;BME280_humidity;BME280_pressure;Samples;Min_cycle;Max_cycle;Signal;HPM_P1;HPM_P2
2021/01/19 00:01:26;;;;;;;25.27;9.52;;;;;;;2.27;92.57;100889.56;5030172;28;20483;-67
2021/01/19 00:03:51;;;;;;;42.50;10.80;;;;;;;2.33;92.58;100903.16;5030206;28;20056;-67
2021/01/19 00:06:17;;;;;;;22.77;10.37;;;;;;;2.33;92.53;100897.03;5030711;28;20045;-67
2021/01/19 00:08:42;;;;;;;24.80;11.33;;;;;;;2.36;92.81;100894.19;5031131;28;20041;-68
2021/01/19 00:11:07;;;;;;;27.57;11.33;;;;;;;2.41;92.69;100886.84;5030220;28;20207;-67
2021/01/19 00:13:33;;;;;;;32.83;12.97;;;;;;;2.43;92.50;100892.81;5030197;28;20507;-67
2021/01/19 00:15:58;;;;;;;27.67;13.53;;;;;;;2.43;92.74;100890.19;5029931;28;20429;-67
2021/01/19 00:18:25;;;;;;;41.20;14.77;;;;;;;2.42;92.56;100885.88;5031033;28;20434;-67
2021/01/19 00:20:50;;;;;;;38.58;14.30;;;;;;;2.45;92.92;100890.91;5029802;28;20044;-67
2021/01/19 00:23:15;;;;;;;31.17;14.20;;;;;;;2.44;92.72;100886.63;5030907;28;20037;-67
2021/01/19 00:25:42;;;;;;;41.97;15.20;;;;;;;2.47;92.65;100890.81;5030775;28;20629;-67
2021/01/19 00:28:08;;;;;;;42.67;16.48;;;;;;;2.48;92.61;100893.34;5030730;28;20037;-67
2021/01/19 00:30:41;;;;;;;43.83;16.92;;;;;;;2.48;92.63;100882.81;5030899;28;20041;-67
2021/01/19 00:33:07;;;;;;;35.80;16.13;;;;;;;2.45;92.86;100877.75;5013406;28;20077;-67
2021/01/19 00:35:34;;;;;;;40.08;15.45;;;;;;;2.46;92.86;100882.06;5030662;28;20050;-67
2021/01/19 00:38:00;;;;;;;43.17;16.58;;;;;;;2.51;92.89;100873.84;5029835;28;20037;-67
2021/01/19 00:40:29;;;;;;;37.58;14.50;;;;;;;2.57;92.79;100881.31;5013375;28;20042;-67
2021/01/19 00:42:55;;;;;;;44.10;16.75;;;;;;;2.55;92.87;100872.66;5030832;28;20095;-67
2021/01/19 00:45:21;;;;;;;42.75;17.20;;;;;;;2.52;92.68;100863.19;5029762;28;20055;-67
2021/01/19 00:47:46;;;;;;;39.93;15.83;;;;;;;2.57;92.68;100856.75;5029472;28;20451;-67
2021/01/19 00:50:12;;;;;;;37.45;15.57;;;;;;;2.57;92.58;100860.22;5030705;28;20268;-68
2021/01/19 00:52:38;;;;;;;36.13;15.18;;;;;;;2.54;92.61;100856.00;5013558;28;20775;-67
2021/01/19 00:55:05;;;;;;;;;;;;;;;2.61;92.45;100855.59;5016649;28;20073;-68
2021/01/19 00:57:30;;;;;;;;;;;;;;;2.60;92.13;100853.88;5016899;28;19948;-68
2021/01/19 00:59:56;;;;;;;;;;;;;;;2.61;92.15;100847.69;5033622;28;19928;-68
2021/01/19 01:02:21;;;;;;;29.83;11.35;;;;;;;2.58;92.21;100845.28;5033147;28;19982;-68
2021/01/19 01:04:47;;;;;;;36.43;15.13;;;;;;;2.59;92.14;100841.69;5033086;28;20044;-68
2021/01/19 01:07:12;;;;;;;33.97;13.17;;;;;;;2.58;92.13;100835.56;5032943;28;20633;-68
2021/01/19 01:09:38;;;;;;;36.15;14.93;;;;;;;2.57;92.19;100838.31;5033333;28;20633;-68
2021/01/19 01:12:05;;;;;;;46.87;15.93;;;;;;;2.62;92.08;100830.91;5034005;28;20051;-68
2021/01/19 01:14:30;;;;;;;41.97;14.30;;;;;;;2.64;91.87;100834.28;5033974;28;20091;-68
2021/01/19 01:16:55;;;;;;;36.27;15.63;;;;;;;2.65;91.75;100826.28;5033606;28;20037;-68
2021/01/19 01:19:21;;;;;;;31.77;15.10;;;;;;;2.68;91.72;100823.41;5033886;28;20047;-68
2021/01/19 01:21:46;;;;;;;36.13;14.53;;;;;;;2.70;91.48;100818.03;5033860;28;20068;-68
2021/01/19 01:24:11;;;;;;;33.93;13.77;;;;;;;2.67;91.53;100812.97;5033850;28;20037;-68
2021/01/19 01:26:37;;;;;;;39.63;13.30;;;;;;;2.74;91.44;100822.16;5033440;28;20092;-68
2021/01/19 01:29:03;;;;;;;45.87;16.67;;;;;;;2.72;91.30;100808.22;5032743;28;20132;-68
2021/01/19 01:31:29;;;;;;;;;;;;;;;2.73;91.30;100810.72;5033980;28;20075;-68
2021/01/19 01:33:54;;;;;;;;;;;;;;;2.73;91.20;100801.97;5016639;28;19952;-68
2021/01/19 01:36:19;;;;;;;33.63;13.27;;;;;;;2.70;91.31;100799.56;5015709;28;19909;-67
2021/01/19 01:38:44;;;;;;;32.73;14.53;;;;;;;2.69;91.20;100784.69;5033631;28;20459;-68
2021/01/19 01:41:18;;;;;;;35.63;15.10;;;;;;;2.72;91.03;100792.41;5033377;28;20444;-68
2021/01/19 01:43:43;;;;;;;33.97;14.57;;;;;;;2.74;91.26;100798.41;5033513;28;20211;-68
2021/01/19 01:46:10;;;;;;;30.90;13.88;;;;;;;2.78;90.80;100791.94;5032114;28;20132;-67
2021/01/19 01:48:40;;;;;;;39.30;13.10;;;;;;;2.75;90.56;100784.25;5032394;28;20045;-68
2021/01/19 01:51:07;;;;;;;38.60;15.65;;;;;;;2.69;90.66;100788.19;5033301;28;20510;-67
2021/01/19 01:53:32;;;;;;;38.60;14.68;;;;;;;2.75;90.65;100784.25;5033294;28;20037;-68
2021/01/19 01:55:58;;;;;;;32.30;13.87;;;;;;;2.75;90.65;100779.00;5032968;28;20040;-67
2021/01/19 01:58:23;;;;;;;32.73;15.20;;;;;;;2.74;90.74;100780.78;5033097;28;20072;-68
2021/01/19 02:00:53;;;;;;;31.23;15.80;;;;;;;2.74;90.54;100779.97;5031995;28;20072;-67
2021/01/19 02:03:18;;;;;;;35.63;15.38;;;;;;;2.70;90.60;100783.75;5032119;28;20179;-68
2021/01/19 02:05:44;;;;;;;29.50;13.83;;;;;;;2.79;90.59;100785.72;5030744;28;20116;-67
2021/01/19 02:08:48;;;;;;;33.50;14.87;;;;;;;2.72;90.29;100784.50;5031942;28;20033;-67
2021/01/19 02:11:54;;;;;;;27.55;10.63;;;;;;;2.72;90.31;100789.78;5032508;28;20060;-67
2021/01/19 02:14:32;;;;;;;34.95;13.73;;;;;;;2.74;90.27;100782.59;5033065;28;20041;-67
2021/01/19 02:17:32;;;;;;;30.65;12.60;;;;;;;2.77;90.28;100777.09;5032591;28;20095;-67
2021/01/19 02:20:20;;;;;;;29.42;12.88;;;;;;;2.76;89.90;100775.38;5030744;28;20041;-67
2021/01/19 02:23:04;;;;;;;32.03;11.38;;;;;;;2.80;90.01;100776.03;5030636;28;20061;-67
2021/01/19 02:25:57;;;;;;;31.60;12.65;;;;;;;2.79;90.00;100767.28;5032606;28;20171;-68
2021/01/19 02:28:44;;;;;;;28.77;11.98;;;;;;;2.76;90.03;100749.03;5031483;28;20375;-67
2021/01/19 02:31:12;;;;;;;33.85;13.57;;;;;;;2.72;89.88;100747.59;5032503;28;20044;-67
2021/01/19 02:34:05;;;;;;;33.47;12.60;;;;;;;2.69;90.05;100753.94;5031562;28;20044;-67
2021/01/19 02:36:44;;;;;;;30.80;13.07;;;;;;;2.70;90.22;100752.13;5031176;28;20033;-67
2021/01/19 02:39:13;;;;;;;34.17;12.27;;;;;;;2.70;90.04;100742.41;5031469;28;20045;-67
2021/01/19 02:41:41;;;;;;;26.98;11.40;;;;;;;2.71;89.84;100730.91;5032157;28;20103;-67
2021/01/19 02:44:15;;;;;;;26.25;11.85;;;;;;;2.69;89.66;100739.88;5032342;28;20076;-67
2021/01/19 02:46:40;;;;;;;29.80;10.25;;;;;;;2.65;89.70;100731.38;5030977;28;20099;-67
2021/01/19 02:49:06;;;;;;;23.23;11.30;;;;;;;2.69;89.65;100742.50;5032285;28;20033;-67
2021/01/19 02:51:31;;;;;;;28.20;13.00;;;;;;;2.65;89.60;100727.91;5014742;28;20041;-67
2021/01/19 02:53:57;;;;;;;24.53;12.53;;;;;;;2.61;89.72;100729.06;5032198;28;20061;-67
2021/01/19 02:56:41;;;;;;;32.67;11.32;;;;;;;2.67;89.20;100720.69;5031771;28;20033;-67
2021/01/19 02:59:22;;;;;;;30.02;11.77;;;;;;;2.69;89.27;100724.06;5014974;28;20068;-67
2021/01/19 03:01:58;;;;;;;21.92;9.55;;;;;;;2.70;88.92;100717.84;5031864;28;20041;-67
2021/01/19 03:04:24;;;;;;;21.98;10.85;;;;;;;2.68;88.69;100717.13;5031078;28;20061;-67
2021/01/19 03:06:51;;;;;;;27.45;11.35;;;;;;;2.66;88.72;100711.94;5014142;28;20037;-67
2021/01/19 03:09:18;;;;;;;28.40;12.20;;;;;;;2.68;88.64;100701.31;5031800;28;20049;-67
2021/01/19 03:11:45;;;;;;;27.02;11.70;;;;;;;2.63;88.81;100700.81;5031797;28;20037;-67
2021/01/19 03:14:11;;;;;;;24.45;11.00;;;;;;;2.59;88.98;100701.97;5031774;28;20041;-67
2021/01/19 03:16:37;;;;;;;25.15;11.57;;;;;;;2.54;89.11;100692.59;5030280;28;20860;-66
2021/01/19 03:19:03;;;;;;;25.55;11.35;;;;;;;2.57;89.22;100701.25;5030836;28;20112;-67
2021/01/19 03:21:28;;;;;;;26.95;11.88;;;;;;;2.57;89.14;100701.25;5031550;28;20029;-66
2021/01/19 03:23:54;;;;;;;25.10;12.47;;;;;;;2.51;89.22;100684.94;5030634;28;20048;-66
2021/01/19 03:26:19;;;;;;;32.20;13.13;;;;;;;2.55;89.33;100682.91;5030248;28;20037;-66
2021/01/19 03:28:44;;;;;;;26.30;13.60;;;;;;;2.52;89.47;100686.59;5030600;28;20065;-66
2021/01/19 03:31:10;;;;;;;31.03;14.07;;;;;;;2.52;89.49;100677.84;5031539;28;20095;-66
2021/01/19 03:33:35;;;;;;;26.20;12.43;;;;;;;2.50;89.40;100674.50;5014125;28;20045;-66
2021/01/19 03:36:00;;;;;;;29.27;12.90;;;;;;;2.49;89.77;100663.13;5030408;28;20095;-66
2021/01/19 03:38:26;;;;;;;27.70;12.03;;;;;;;2.54;89.52;100655.69;5031306;28;20045;-66
2021/01/19 03:40:51;;;;;;;26.67;12.70;;;;;;;2.50;89.37;100656.88;5031215;28;20041;-66
2021/01/19 03:43:17;;;;;;;33.77;14.60;;;;;;;2.50;89.46;100645.50;5031335;28;20045;-66
2021/01/19 03:45:42;;;;;;;29.90;14.30;;;;;;;2.48;89.48;100639.50;5031153;28;20076;-66
2021/01/19 03:48:07;;;;;;;31.90;14.80;;;;;;;2.45;89.35;100651.09;5031263;28;20072;-66
2021/01/19 03:50:33;;;;;;;37.50;14.33;;;;;;;2.45;89.33;100651.09;5030349;28;20091;-66
2021/01/19 03:52:58;;;;;;;33.20;14.05;;;;;;;2.46;89.20;100649.34;5031308;28;20033;-66
2021/01/19 03:55:24;;;;;;;30.80;13.97;;;;;;;2.48;89.40;100640.38;5030188;28;20371;-67
2021/01/19 03:57:49;;;;;;;32.10;14.13;;;;;;;2.45;89.25;100635.28;5031000;28;20902;-67
2021/01/19 04:00:16;;;;;;;33.00;15.60;;;;;;;2.44;89.01;100628.34;5031166;28;20099;-66
2021/01/19 04:02:42;;;;;;;31.63;14.60;;;;;;;2.42;89.00;100617.09;5031172;28;20045;-67
2021/01/19 04:05:08;;;;;;;38.28;15.40;;;;;;;2.39;88.89;100614.69;5030178;28;20049;-66
2021/01/19 04:07:39;;;;;;;36.88;15.95;;;;;;;2.33;88.82;100613.31;5029899;28;20451;-66
2021/01/19 04:10:09;;;;;;;36.55;17.63;;;;;;;2.33;88.98;100615.97;5030114;28;20434;-67
2021/01/19 04:12:34;;;;;;;48.90;17.85;;;;;;;2.35;89.11;100615.84;5031011;28;20481;-66
2021/01/19 04:15:00;;;;;;;42.13;17.17;;;;;;;2.36;88.85;100614.88;5031116;28;20041;-67
2021/01/19 04:17:25;;;;;;;37.93;16.40;;;;;;;2.39;88.77;100598.88;5030729;28;20029;-67
2021/01/19 04:19:50;;;;;;;40.23;19.23;;;;;;;2.35;88.88;100594.78;5030938;28;20045;-66
2021/01/19 04:22:16;;;;;;;39.00;17.47;;;;;;;2.33;88.77;100602.78;5031008;28;20038;-67
2021/01/19 04:24:41;;;;;;;30.07;16.03;;;;;;;2.37;88.69;100597.31;5029861;28;20040;-67
2021/01/19 04:27:06;;;;;;;36.83;18.57;;;;;;;2.36;88.75;100596.44;5030759;28;20042;-66
2021/01/19 04:29:32;;;;;;;41.30;18.70;;;;;;;2.36;88.71;100604.34;5032128;28;20038;-67
2021/01/19 04:31:57;;;;;;;42.87;19.97;;;;;;;2.37;88.64;100594.69;5034888;28;20033;-67
2021/01/19 04:34:22;;;;;;;44.30;20.10;;;;;;;2.33;88.96;100599.31;5034783;28;20091;-67
2021/01/19 04:36:48;;;;;;;49.90;21.93;;;;;;;2.28;88.92;100583.84;5034480;28;20095;-67
2021/01/19 04:39:13;;;;;;;44.67;19.00;;;;;;;2.34;88.81;100569.38;5033651;28;20057;-67
2021/01/19 04:41:39;;;;;;;51.03;22.73;;;;;;;2.31;88.97;100580.16;5033684;28;20038;-67
2021/01/19 04:44:07;;;;;;;53.55;21.35;;;;;;;2.29;89.12;100566.25;5034448;28;20418;-67
2021/01/19 04:46:33;;;;;;;53.40;23.45;;;;;;;2.30;89.14;100560.88;5034227;28;20146;-67
2021/01/19 04:49:02;;;;;;;55.53;25.20;;;;;;;2.27;89.68;100560.25;5033495;28;20136;-67
2021/01/19 04:51:32;;;;;;;56.40;26.63;;;;;;;2.30;89.57;100552.13;5034288;28;20038;-67
2021/01/19 04:54:06;;;;;;;61.47;26.60;;;;;;;2.29;89.70;100555.69;5033478;28;20087;-67
2021/01/19 04:56:36;;;;;;;62.33;26.23;;;;;;;2.31;89.81;100548.53;5034038;28;20107;-67
2021/01/19 04:59:12;;;;;;;64.25;29.60;;;;;;;2.29;89.85;100539.91;5033409;28;20037;-66
2021/01/19 05:01:48;;;;;;;57.35;25.25;;;;;;;2.29;89.81;100526.72;5034221;28;20045;-67
2021/01/19 05:04:41;;;;;;;61.15;28.48;;;;;;;2.31;89.89;100523.00;5034213;28;20049;-67
2021/01/19 05:07:32;;;;;;;60.78;28.52;;;;;;;2.31;89.87;100523.00;5032917;28;20045;-67
2021/01/19 05:10:13;;;;;;;60.03;26.20;;;;;;;2.35;89.90;100513.09;5033197;28;20048;-67
2021/01/19 05:12:44;;;;;;;64.63;29.17;;;;;;;2.35;89.95;100512.28;5033279;28;20041;-71
2021/01/19 05:15:11;;;;;;;66.57;28.75;;;;;;;2.36;89.87;100503.41;5033026;28;20120;-67
2021/01/19 05:17:38;;;;;;;62.65;27.60;;;;;;;2.37;89.72;100495.38;5033682;28;20629;-67
2021/01/19 05:20:05;;;;;;;57.30;26.67;;;;;;;2.39;89.49;100482.94;5033776;28;20029;-67
2021/01/19 05:22:31;;;;;;;60.70;26.95;;;;;;;2.38;89.41;100481.25;5033795;28;20045;-67
2021/01/19 05:24:56;;;;;;;70.30;30.98;;;;;;;2.42;89.40;100469.53;5032676;28;20199;-67
2021/01/19 05:27:22;;;;;;;69.23;31.57;;;;;;;2.45;89.42;100471.91;5033474;28;20033;-67
2021/01/19 05:29:47;;;;;;;71.10;35.60;;;;;;;2.44;89.02;100459.72;5032770;28;20529;-67
2021/01/19 05:32:14;;;;;;;60.00;27.63;;;;;;;2.48;89.16;100463.81;5033846;28;20033;-67
2021/01/19 05:34:39;;;;;;;65.82;32.63;;;;;;;2.44;89.41;100440.44;5033595;28;20071;-67
2021/01/19 05:37:05;;;;;;;68.00;32.30;;;;;;;2.45;89.35;100447.38;5032208;28;20118;-67
2021/01/19 05:39:30;;;;;;;68.20;31.53;;;;;;;2.42;89.31;100443.19;5033304;28;20036;-67
2021/01/19 05:41:56;;;;;;;76.13;32.07;;;;;;;2.46;89.57;100446.44;5032560;28;20034;-66
2021/01/19 05:44:26;;;;;;;67.25;30.90;;;;;;;2.45;89.58;100435.03;5033474;28;20052;-66
2021/01/19 05:47:03;;;;;;;64.32;31.42;;;;;;;2.44;89.64;100432.53;5033109;28;20048;-66
2021/01/19 05:49:36;;;;;;;67.68;30.15;;;;;;;2.46;89.76;100430.63;5033306;28;20502;-66
2021/01/19 05:52:07;;;;;;;65.70;30.65;;;;;;;2.45;89.86;100427.13;5032375;28;20141;-66
2021/01/19 05:54:34;;;;;;;63.30;31.98;;;;;;;2.44;89.84;100414.91;5033298;28;20044;-66
2021/01/19 05:57:00;;;;;;;67.32;30.02;;;;;;;2.45;89.96;100418.38;5031975;28;20050;-66
2021/01/19 05:59:28;;;;;;;67.15;30.08;;;;;;;2.41;90.24;100416.94;5015713;28;20042;-66
2021/01/19 06:01:57;;;;;;;63.42;31.92;;;;;;;2.40;90.55;100416.09;5033068;28;20083;-66
2021/01/19 06:04:29;;;;;;;70.38;30.30;;;;;;;2.38;90.67;100415.38;5032142;28;20371;-66
2021/01/19 06:06:57;;;;;;;64.80;28.65;;;;;;;2.33;90.75;100402.56;5031840;28;20080;-66
2021/01/19 06:09:23;;;;;;;63.97;28.48;;;;;;;2.33;90.93;100399.09;5033037;28;20041;-66
2021/01/19 06:11:53;;;;;;;57.43;26.37;;;;;;;2.26;91.09;100393.44;5032954;28;20048;-66
2021/01/19 06:14:37;;;;;;;59.83;25.75;;;;;;;2.25;90.90;100391.78;5015554;28;20287;-66
2021/01/19 06:17:04;;;;;;;55.25;25.75;;;;;;;2.23;91.00;100388.41;5015123;28;20041;-66
2021/01/19 06:19:31;;;;;;;51.45;22.52;;;;;;;2.18;91.05;100385.31;5032823;28;20064;-66
2021/01/19 06:21:57;;;;;;;53.00;22.90;;;;;;;2.16;91.08;100384.59;5032662;28;20367;-66
2021/01/19 06:24:33;;;;;;;56.10;23.88;;;;;;;2.13;91.36;100382.19;5031786;28;20107;-66
2021/01/19 06:26:59;;;;;;;54.90;25.42;;;;;;;2.11;91.50;100384.09;5032407;28;20136;-66
2021/01/19 06:29:27;;;;;;;48.60;20.27;;;;;;;2.07;91.46;100366.84;5032612;28;20124;-66
2021/01/19 06:31:55;;;;;;;47.67;19.88;;;;;;;2.00;91.37;100360.38;5032564;28;20411;-66
2021/01/19 06:34:25;;;;;;;48.25;21.38;;;;;;;1.96;91.61;100359.75;5032560;28;20133;-66
2021/01/19 06:36:50;;;;;;;35.17;17.23;;;;;;;1.94;91.19;100348.50;5032116;28;20052;-66
2021/01/19 06:39:28;;;;;;;30.73;14.50;;;;;;;1.85;90.97;100349.19;5031634;28;20463;-66
2021/01/19 06:42:02;;;;;;;32.28;15.48;;;;;;;1.82;91.02;100352.91;5014816;28;20046;-66
2021/01/19 06:44:36;;;;;;;31.63;13.45;;;;;;;1.67;90.64;100354.91;5031923;28;20051;-66
2021/01/19 06:47:04;;;;;;;25.98;11.45;;;;;;;1.64;90.70;100344.63;5031125;28;20104;-66
2021/01/19 06:49:37;;;;;;;27.80;13.00;;;;;;;1.57;90.87;100334.63;5032149;28;20034;-66
2021/01/19 06:52:08;;;;;;;27.08;12.27;;;;;;;1.58;90.71;100338.97;5031638;28;20471;-66
2021/01/19 06:54:50;;;;;;;23.73;11.95;;;;;;;1.42;90.61;100340.09;5032048;28;20037;-66
2021/01/19 06:57:52;;;;;;;25.30;11.57;;;;;;;1.38;90.54;100335.16;5031801;28;20033;-66
2021/01/19 07:00:20;;;;;;;23.80;11.60;;;;;;;1.21;90.47;100316.22;5031902;28;20128;-66
2021/01/19 07:02:51;;;;;;;26.63;12.70;;;;;;;1.20;90.79;100319.81;5030874;28;20033;-66
2021/01/19 07:05:18;;;;;;;27.90;11.70;;;;;;;1.09;90.68;100316.28;5030878;28;20037;-66
2021/01/19 07:07:45;;;;;;;25.33;12.13;;;;;;;1.05;90.80;100318.28;5030239;28;20083;-66
2021/01/19 07:10:15;;;;;;;25.70;12.80;;;;;;;1.01;90.96;100306.34;5030450;28;20033;-66
2021/01/19 07:12:56;;;;;;;24.25;11.82;;;;;;;0.94;90.85;100305.09;5030730;28;20099;-66
2021/01/19 07:15:41;;;;;;;22.02;10.73;;;;;;;0.88;90.90;100297.66;5031684;28;20041;-66
2021/01/19 07:18:27;;;;;;;20.92;10.45;;;;;;;0.82;90.88;100293.69;5030872;28;20034;-66
2021/01/19 07:21:06;;;;;;;24.35;12.05;;;;;;;0.72;91.07;100293.50;5030595;28;20429;-66
2021/01/19 07:23:47;;;;;;;24.48;11.48;;;;;;;0.64;91.03;100290.59;5013905;28;20033;-66
2021/01/19 07:26:34;;;;;;;21.75;10.43;;;;;;;0.62;91.29;100297.75;5029754;28;20041;-66
2021/01/19 07:28:59;;;;;;;23.60;10.57;;;;;;;0.58;91.37;100291.00;5031121;28;20116;-66
2021/01/19 07:31:25;;;;;;;27.52;11.27;;;;;;;0.50;91.44;100285.47;5029960;28;20033;-66
2021/01/19 07:33:57;;;;;;;20.17;9.30;;;;;;;0.53;91.41;100274.75;5030233;28;20133;-66
2021/01/19 07:36:25;;;;;;;23.15;9.38;;;;;;;0.46;91.72;100270.88;5031026;28;20068;-66
2021/01/19 07:38:51;;;;;;;18.63;8.98;;;;;;;0.46;91.63;100276.13;5030561;28;20111;-66
2021/01/19 07:41:30;;;;;;;21.67;9.45;;;;;;;0.36;91.78;100268.06;5031066;28;20542;-66
2021/01/19 07:43:56;;;;;;;19.45;9.15;;;;;;;0.34;91.85;100267.34;5013495;28;20043;-66
2021/01/19 07:46:27;;;;;;;19.90;8.98;;;;;;;0.34;91.84;100252.41;5030635;28;20128;-66
2021/01/19 07:49:29;;;;;;;19.88;9.95;;;;;;;0.33;91.86;100253.38;5029924;28;20049;-66
2021/01/19 07:51:55;;;;;;;23.00;9.18;;;;;;;0.30;91.80;100252.75;5030840;28;20124;-66
2021/01/19 07:54:20;;;;;;;22.37;10.00;;;;;;;0.28;91.86;100246.75;5030854;28;20049;-66
2021/01/19 07:56:45;;;;;;;19.80;9.07;;;;;;;0.14;92.06;100239.84;5013172;28;20033;-66
2021/01/19 07:59:19;;;;;;;21.17;10.83;;;;;;;0.13;92.03;100232.94;5030549;28;20038;-66
2021/01/19 08:01:55;;;;;;;25.63;11.75;;;;;;;0.07;92.19;100228.09;5030555;28;20088;-66
2021/01/19 08:04:29;;;;;;;23.73;10.77;;;;;;;0.16;92.25;100230.09;5032568;28;20033;-66
2021/01/19 08:06:54;;;;;;;20.80;9.80;;;;;;;0.07;92.05;100217.59;5034483;28;20037;-66
2021/01/19 08:09:20;;;;;;;25.15;10.90;;;;;;;-0.01;92.30;100219.00;5033837;28;20094;-66
2021/01/19 08:11:46;;;;;;;24.52;11.15;;;;;;;-0.06;92.31;100218.47;5033639;28;20041;-66
2021/01/19 08:14:12;;;;;;;20.38;10.88;;;;;;;-0.08;92.48;100209.88;5033710;28;20037;-66
2021/01/19 08:16:42;;;;;;;23.55;10.70;;;;;;;-0.07;92.35;100206.31;5034387;28;20033;-66
2021/01/19 08:19:12;;;;;;;24.17;12.07;;;;;;;-0.15;92.44;100198.13;5033804;28;20391;-66
2021/01/19 08:21:40;;;;;;;20.08;10.30;;;;;;;-0.15;92.68;100182.38;5034955;28;20037;-66
2021/01/19 08:24:08;;;;;;;22.58;11.15;;;;;;;-0.07;92.74;100198.44;5034854;28;20029;-66
2021/01/19 08:26:34;;;;;;;19.20;10.07;;;;;;;-0.15;92.58;100182.38;5034626;28;20065;-66
2021/01/19 08:29:01;;;;;;;22.92;11.00;;;;;;;-0.22;92.62;100181.97;5034046;28;20041;-66
2021/01/19 08:31:31;;;;;;;21.92;10.68;;;;;;;-0.27;92.61;100183.25;5033869;28;20127;-66
2021/01/19 08:34:01;;;;;;;20.52;9.40;;;;;;;-0.25;92.79;100181.34;5033834;28;20029;-66
2021/01/19 08:36:28;;;;;;;22.33;12.00;;;;;;;-0.23;92.66;100169.81;5033465;28;20837;-66
2021/01/19 08:38:56;;;;;;;23.60;10.63;;;;;;;-0.32;92.84;100154.72;5034629;28;20037;-66
2021/01/19 08:41:21;;;;;;;26.42;11.00;;;;;;;-0.34;92.64;100161.00;5033675;28;20034;-66
2021/01/19 08:43:52;;;;;;;19.83;9.17;;;;;;;-0.37;92.81;100151.56;5033110;28;20041;-66
2021/01/19 08:46:17;;;;;;;19.73;9.52;;;;;;;-0.38;92.81;100149.06;5034261;28;20087;-66
2021/01/19 08:48:43;;;;;;;23.05;9.68;;;;;;;-0.32;92.77;100138.13;5034402;28;20116;-66
2021/01/19 08:51:25;;;;;;;19.47;9.87;;;;;;;-0.40;92.65;100135.19;5033690;28;20451;-66
2021/01/19 08:53:51;;;;;;;20.77;10.15;;;;;;;-0.52;92.90;100131.66;5034124;28;20026;-66
2021/01/19 08:56:20;;;;;;;24.48;10.63;;;;;;;-0.62;92.99;100125.38;5016689;28;20036;-66
2021/01/19 08:58:46;;;;;;;22.13;10.48;;;;;;;-0.59;93.07;100127.78;5034221;28;20578;-66
2021/01/19 09:01:12;;;;;;;21.52;10.50;;;;;;;-0.60;93.18;100120.88;5033488;28;20144;-66
2021/01/19 09:03:38;;;;;;;20.38;10.38;;;;;;;-0.54;93.00;100118.66;5032504;28;20037;-66
2021/01/19 09:06:12;;;;;;;21.08;10.27;;;;;;;-0.59;93.22;100105.00;5032496;28;20473;-66
2021/01/19 09:08:43;;;;;;;21.08;10.32;;;;;;;-0.48;92.87;100112.97;5032491;28;20386;-66
2021/01/19 09:11:10;;;;;;;19.25;8.32;;;;;;;-0.48;93.14;100094.63;5033543;28;20049;-66
2021/01/19 09:13:40;;;;;;;21.05;9.57;;;;;;;-0.59;93.10;100099.75;5032452;28;20171;-66
2021/01/19 09:16:06;;;;;;;26.25;11.18;;;;;;;-0.59;93.02;100093.69;5015212;28;20061;-66
2021/01/19 09:18:33;;;;;;;23.90;10.63;;;;;;;-0.52;92.98;100090.53;5033643;28;20143;-66
2021/01/19 09:21:03;;;;;;;22.80;10.10;;;;;;;-0.57;92.94;100092.63;5033698;28;20091;-66
2021/01/19 09:23:34;;;;;;;19.25;8.52;;;;;;;-0.58;93.13;100085.72;5016406;28;20108;-66
2021/01/19 09:26:07;;;;;;;18.40;9.95;;;;;;;-0.49;93.09;100084.25;5032663;28;20052;-66
2021/01/19 09:28:37;;;;;;;19.60;9.55;;;;;;;-0.54;93.13;100070.59;5032736;28;20418;-66
2021/01/19 09:31:17;;;;;;;21.33;10.35;;;;;;;-0.55;93.09;100075.00;5032720;28;20132;-66
2021/01/19 09:33:48;;;;;;;18.10;9.40;;;;;;;-0.48;93.13;100070.19;5032937;28;20041;-71
2021/01/19 09:36:15;;;;;;;19.65;9.32;;;;;;;-0.41;93.07;100070.59;5033366;28;20467;-71
2021/01/19 09:38:42;;;;;;;20.10;9.30;;;;;;;-0.41;93.12;100067.97;5033607;28;20370;-71
2021/01/19 09:41:12;;;;;;;18.25;9.57;;;;;;;-0.45;92.94;100064.72;5015810;28;20037;-71
2021/01/19 09:43:38;;;;;;;16.75;9.48;;;;;;;-0.44;92.99;100061.16;5033528;28;20560;-71
2021/01/19 09:46:07;;;;;;;19.65;9.52;;;;;;;-0.45;92.80;100047.19;5033297;28;20068;-71
2021/01/19 09:48:35;;;;;;;18.73;9.38;;;;;;;-0.41;92.89;100039.94;5033372;28;20570;-71
2021/01/19 09:51:03;;;;;;;21.98;10.15;;;;;;;-0.46;92.84;100036.81;5033265;28;20044;-71
2021/01/19 09:53:32;;;;;;;18.08;9.10;;;;;;;-0.40;92.76;100030.28;5032441;28;20029;-71
2021/01/19 09:55:58;;;;;;;18.92;9.43;;;;;;;-0.46;93.02;100024.53;5032855;28;20049;-72
2021/01/19 09:58:24;;;;;;;;;;;;;;;-0.45;93.10;100023.56;5032803;28;20048;-71
2021/01/19 10:00:50;;;;;;;23.67;10.95;;;;;;;-0.47;93.01;100015.00;5032046;28;19917;-71
2021/01/19 10:03:17;;;;;;;22.33;10.23;;;;;;;-0.45;92.99;100010.47;5032249;28;20033;-70
2021/01/19 10:05:44;;;;;;;19.85;10.13;;;;;;;-0.44;93.18;100004.28;5032746;28;20048;-71
2021/01/19 10:08:10;;;;;;;15.40;8.55;;;;;;;-0.41;93.05;100005.03;5032869;28;20060;-71
2021/01/19 10:10:37;;;;;;;18.88;9.75;;;;;;;-0.47;93.13;99988.78;5032889;28;20041;-71
2021/01/19 10:13:04;;;;;;;19.75;8.95;;;;;;;-0.48;93.20;99991.50;5031980;28;20121;-71
2021/01/19 10:15:29;;;;;;;20.83;10.07;;;;;;;-0.50;93.30;99988.97;5032773;28;20041;-71
2021/01/19 10:17:57;;;;;;;19.85;9.38;;;;;;;-0.48;93.30;99984.47;5032746;28;20049;-71
2021/01/19 10:20:31;;;;;;;20.35;10.07;;;;;;;-0.44;93.37;99980.69;5032719;28;20037;-72
2021/01/19 10:22:57;;;;;;;16.23;8.05;;;;;;;-0.39;93.23;99974.28;5031821;28;20041;-73
2021/01/19 10:25:30;;;;;;;17.52;8.88;;;;;;;-0.41;93.16;99968.31;5031053;28;20099;-72
2021/01/19 10:27:58;;;;;;;15.80;8.38;;;;;;;-0.35;93.18;99958.22;5031578;28;20044;-72
2021/01/19 10:30:34;;;;;;;18.08;9.07;;;;;;;-0.35;93.14;99965.22;5032489;28;20064;-72
2021/01/19 10:33:00;;;;;;;17.42;8.85;;;;;;;-0.28;92.96;99953.31;5032580;28;20041;-72
2021/01/19 10:35:33;;;;;;;18.40;8.88;;;;;;;-0.36;92.68;99947.81;5031267;28;20455;-72
2021/01/19 10:38:03;;;;;;;30.58;11.05;;;;;;;0.33;93.93;99946.16;5032291;28;20048;-73
2021/01/19 10:40:29;;;;;;;15.18;8.43;;;;;;;-0.04;93.01;99956.78;5031181;28;20071;-72
2021/01/19 10:42:55;;;;;;;14.18;7.70;;;;;;;-0.21;92.98;99938.84;5031196;28;20464;-72
2021/01/19 10:45:30;;;;;;;15.18;7.95;;;;;;;-0.24;92.69;99944.28;5031140;28;20041;-72
2021/01/19 10:47:58;;;;;;;17.23;8.82;;;;;;;-0.23;92.64;99928.44;5031980;28;20042;-72
2021/01/19 10:50:32;;;;;;;16.75;8.82;;;;;;;-0.15;92.82;99924.41;5032077;28;20099;-72
2021/01/19 10:53:04;;;;;;;15.77;8.52;;;;;;;-0.20;92.70;99927.38;5031292;28;20045;-73
2021/01/19 10:55:30;;;;;;;14.80;8.13;;;;;;;-0.17;92.62;99921.91;5031967;28;20047;-73
2021/01/19 10:57:57;;;;;;;18.10;9.43;;;;;;;-0.09;92.57;99918.72;5031057;28;20090;-72
2021/01/19 11:00:24;;;;;;;13.90;8.32;;;;;;;0.04;92.54;99914.22;5030770;28;20034;-73
2021/01/19 11:02:49;;;;;;;15.05;8.32;;;;;;;0.01;92.40;99911.00;5031033;28;20041;-72
2021/01/19 11:05:15;;;;;;;14.73;7.47;;;;;;;-0.11;92.51;99910.13;5030990;28;20037;-72
2021/01/19 11:07:48;;;;;;;13.80;7.80;;;;;;;-0.03;92.56;99905.94;5014202;28;20130;-73
2021/01/19 11:10:15;;;;;;;12.95;7.65;;;;;;;-0.04;92.47;99901.66;5031918;28;20359;-72
2021/01/19 11:12:41;;;;;;;17.50;8.32;;;;;;;-0.11;92.61;99899.63;5031733;28;20033;-72
2021/01/19 11:15:08;;;;;;;13.48;7.15;;;;;;;-0.06;92.83;99895.69;5031686;28;20068;-73
2021/01/19 11:17:33;;;;;;;13.93;7.40;;;;;;;-0.05;92.68;99893.91;5031462;28;20470;-73
2021/01/19 11:19:59;;;;;;;14.97;7.47;;;;;;;-0.05;92.74;99896.53;5031749;28;20037;-72
2021/01/19 11:22:24;;;;;;;13.97;7.23;;;;;;;-0.01;92.71;99890.09;5030188;28;20496;-72
2021/01/19 11:24:49;;;;;;;14.90;7.80;;;;;;;-0.04;92.96;99891.16;5030730;28;20410;-72
2021/01/19 11:27:15;;;;;;;13.65;7.15;;;;;;;-0.03;92.74;99884.13;5031219;28;20040;-73
2021/01/19 11:29:40;;;;;;;15.37;8.30;;;;;;;-0.05;92.80;99872.91;5030625;28;20048;-72